Nearby METAR Reports

 

KMTN - Baltimore/Martin, Maryland, USA
Distance from station: SSE 8mi, 13km
Updated: Fri, 19-Sep-2014 5:55pm EDT
NOT Current
Partly cloudy
Partly cloudy
 Wind from ENE
Wind: ENE 7 mph , 11 km/h
Temperature: 72°F , 22°C
Dew Point: 61°F , 16°C
Humidity: 69%
Barometer: 30.28 inHg , 1025.4 hPa
Clouds: Partly cloudy
Visibility: 10 miles , 16 km
Cloud details: Partly cloudy 8000 ft
2014/09/19 21:55 KMTN 192155Z 07006KT 10SM SCT080 22/16 A3028
KDMH - Baltimore/Dwntwn, Maryland, USA
Distance from station: SW 12mi, 19km
Updated: Fri, 19-Sep-2014 6:54pm EDT

 
Temperature: 72°F , 22°C
Dew Point: 54°F , 12°C
Humidity: 53%
Barometer: 30.28 inHg , 1025.4 hPa
2014/09/19 22:54 KDMH 192254Z AUTO 22/12 A3028 RMK AO1 SLP253 T02170122
 
KBWI - Balto/Wash Intl, Maryland, USA
Distance from station: SSW 20mi, 33km
Updated: Fri, 19-Sep-2014 6:54pm EDT
Mostly cloudy
Mostly cloudy
 Wind from ESE
Wind: ESE 10 mph , 17 km/h
Temperature: 70°F , 21°C
Dew Point: 57°F , 14°C
Humidity: 64%
Barometer: 30.26 inHg , 1024.7 hPa
Clouds: Mostly cloudy
Visibility: 10 miles , 16 km
Cloud details: Partly cloudy 3700 ft
Mostly cloudy 8500 ft
Mostly cloudy 16000 ft
2014/09/19 22:54 KBWI 192254Z 11009KT 10SM SCT037 BKN085 BKN160 21/14 A3026 RMK AO2 SLP248 T02060139
KDMW - Carroll Cnty, Maryland, USA
Distance from station: WNW 30mi, 48km
Updated: Fri, 19-Sep-2014 7:20pm EDT
Mostly cloudy
Mostly cloudy
 Wind from SE
Wind: SE 7 mph , 11 km/h
Temperature: 66°F , 19°C
Dew Point: 57°F , 14°C
Humidity: 73%
Barometer: 30.28 inHg , 1025.4 hPa
Clouds: Mostly cloudy
Visibility: 10 miles , 16 km
Cloud details: Partly cloudy 7000 ft
Mostly cloudy 8500 ft
2014/09/19 23:20 KDMW 192320Z AUTO 13006KT 10SM SCT070 BKN085 19/14 A3028 RMK AO2
 
KNAK - Annapolis/Naval, Maryland, USA
Distance from station: S 30mi, 48km
Updated: Fri, 19-Sep-2014 6:54pm EDT
Overcast
Overcast
 Wind from E
Wind: E 13 mph , 20 km/h
Temperature: 70°F , 21°C
Dew Point: 57°F , 14°C
Humidity: 64%
Barometer: 30.27 inHg , 1025.1 hPa
Clouds: Overcast
Visibility: 10 miles , 16 km
Cloud details: Few Clouds 5500 ft
Partly cloudy 7000 ft
Overcast 8500 ft
2014/09/19 22:54 KNAK 192254Z AUTO 10011KT 10SM FEW055 SCT070 OVC085 21/14 A3027 RMK AO2 SLP252 T02110144 $
KW29 - Stevensville, Maryland, USA
Distance from station: SSE 31mi, 50km
Updated: Fri, 19-Sep-2014 7:40pm EDT

 Wind from ESE
Wind: ESE 12 mph , 19 km/h
Temperature: 66°F , 19°C
Dew Point: 55°F , 13°C
Humidity: 68%
Barometer: 30.28 inHg , 1025.4 hPa
Visibility: 10 miles , 16 km
2014/09/19 23:40 KW29 192340Z AUTO 11010KT 10SM 19/13 A3028 RMK AO1
 
KCGS - College Park, Maryland, USA
Distance from station: SW 38mi, 61km
Updated: Fri, 19-Sep-2014 7:35pm EDT
Mostly cloudy
Mostly cloudy
 Wind from calm
Wind: Calm
Temperature: 70°F , 21°C
Dew Point: 59°F , 15°C
Humidity: 69%
Barometer: 30.27 inHg , 1025.1 hPa
Clouds: Mostly cloudy
Visibility: 10 miles , 16 km
Cloud details: Partly cloudy 3500 ft
Mostly cloudy 4100 ft
Mostly cloudy 4600 ft
2014/09/19 23:35 KCGS 192335Z AUTO 00000KT 10SM SCT035 BKN041 BKN046 21/15 A3027 RMK AO1
KGAI - Gaithersburg, Maryland, USA
Distance from station: WSW 40mi, 65km
Updated: Fri, 19-Sep-2014 7:35pm EDT
Mostly cloudy
Mostly cloudy
 Wind from E
Wind: E 5 mph , 7 km/h
Temperature: 64°F , 18°C
Dew Point: 57°F , 14°C
Humidity: 78%
Barometer: 30.31 inHg , 1026.4 hPa
Clouds: Mostly cloudy
Visibility: 10 miles , 16 km
Cloud details: Mostly cloudy 6500 ft
2014/09/19 23:35 KGAI 192335Z AUTO 10004KT 10SM BKN065 18/14 A3031 RMK AO1
 
KTHV - York, Pennsylvania, USA
Distance from station: NNW 40mi, 65km
Updated: Fri, 19-Sep-2014 6:53pm EDT
Overcast
Overcast
 Wind from SE
Wind: SE 8 mph , 13 km/h
Temperature: 66°F , 19°C
Dew Point: 55°F , 13°C
Humidity: 68%
Barometer: 30.27 inHg , 1025.1 hPa
Clouds: Overcast
Visibility: 10 miles , 16 km
Cloud details: Overcast 7000 ft
2014/09/19 22:53 KTHV 192253Z AUTO 13007KT 10SM OVC070 19/13 A3027 RMK AO2 SLP254 T01890128
KFDK - Frederick, Maryland, USA
Distance from station: W 47mi, 75km
Updated: Fri, 19-Sep-2014 6:50pm EDT

 Wind from SE
Wind: SE 5 mph , 7 km/h
2014/09/19 22:50 KFDK 192250Z 13004KT 10 OVC070 22/14 A3028
 
KESN - Easton/Newnam, Maryland, USA
Distance from station: SSE 48mi, 78km
Updated: Fri, 19-Sep-2014 7:45pm EDT
Clear
Clear
 Wind from calm
Wind: Calm
Temperature: 66°F , 19°C
Dew Point: 59°F , 15°C
Humidity: 78%
Barometer: 30.33 inHg , 1027.1 hPa
Clouds: Clear
Visibility: 10 miles , 16 km
2014/09/19 23:45 KESN 192345Z 00000KT 10SM SKC 19/15 A3033
KDCA - Washington/Natl, Washington D.c., USA
Distance from station: SW 49mi, 79km
Updated: Fri, 19-Sep-2014 6:52pm EDT
Partly cloudy
Partly cloudy
 Wind from ESE
Wind: ESE 12 mph , 19 km/h
Temperature: 73°F , 23°C
Dew Point: 57°F , 14°C
Humidity: 57%
Barometer: 30.26 inHg , 1024.7 hPa
Clouds: Partly cloudy
Visibility: 10 miles , 16 km
Cloud details: Few Clouds 5000 ft
Partly cloudy 7000 ft
Partly cloudy 10000 ft
2014/09/19 22:52 KDCA 192252Z 11010KT 10SM FEW050 SCT070 SCT100 23/14 A3026 RMK AO2 SLP246 TCU DSNT E T02280139
 
KLNS - Lancaster, Pennsylvania, USA
Distance from station: N 49mi, 79km
Updated: Fri, 19-Sep-2014 6:53pm EDT
Clear
Clear
 Wind from SE
Wind: SE 8 mph , 13 km/h
Temperature: 63°F , 17°C
Dew Point: 52°F , 11°C
Humidity: 68%
Barometer: 30.29 inHg , 1025.7 hPa
Clouds: Clear
Visibility: 10 miles , 16 km
2014/09/19 22:53 KLNS 192253Z 13007KT 10SM CLR 17/11 A3029 RMK AO2 SLP256 T01720111
KILG - Wilmington, Delaware, USA
Distance from station: ENE 50mi, 81km
Updated: Fri, 19-Sep-2014 6:51pm EDT
Clear
Clear
 Wind from E
Wind: E 13 mph , 20 km/h
Temperature: 64°F , 18°C
Dew Point: 55°F , 13°C
Humidity: 73%
Barometer: 30.31 inHg , 1026.4 hPa
Clouds: Clear
Visibility: 10 miles , 16 km
2014/09/19 22:51 KILG 192251Z 10011KT 10SM CLR 18/13 A3031 RMK AO2 SLP262 T01830128